createdAt,value
2023-03-31T00:01:42.911Z,6.80
2023-03-31T00:04:13.327Z,8.13
2023-03-31T00:06:42.214Z,8.97
2023-03-31T00:09:14.099Z,8.17
2023-03-31T00:11:40.864Z,9.73
2023-03-31T00:14:08.579Z,7.40
2023-03-31T00:16:36.662Z,6.70
2023-03-31T00:19:05.963Z,6.83
2023-03-31T00:21:36.953Z,8.20
2023-03-31T00:24:09.366Z,8.23
2023-03-31T00:26:36.422Z,6.53
2023-03-31T00:29:05.053Z,13.20
2023-03-31T00:31:32.234Z,9.13
2023-03-31T00:33:59.412Z,8.83
2023-03-31T00:36:27.426Z,8.57
2023-03-31T00:38:56.238Z,6.93
2023-03-31T00:41:23.091Z,6.50
2023-03-31T00:44:18.856Z,10.97
2023-03-31T00:46:54.659Z,10.30
2023-03-31T00:49:37.379Z,9.70
2023-03-31T00:52:09.343Z,7.60
2023-03-31T00:54:36.934Z,6.83
2023-03-31T00:57:06.693Z,6.23
2023-03-31T00:59:38.644Z,12.13
2023-03-31T01:02:05.480Z,10.27
2023-03-31T01:04:36.451Z,8.23
2023-03-31T01:07:42.754Z,10.37
2023-03-31T01:10:10.639Z,5.20
2023-03-31T01:12:40.182Z,9.63
2023-03-31T01:15:07.780Z,8.77
2023-03-31T01:17:35.336Z,13.07
2023-03-31T01:20:35.454Z,11.37
2023-03-31T01:23:14.681Z,5.93
2023-03-31T01:26:01.415Z,6.93
2023-03-31T01:29:02.935Z,6.20
2023-03-31T01:31:48.674Z,9.20
2023-03-31T01:34:33.471Z,7.33
2023-03-31T01:37:25.292Z,7.13
2023-03-31T01:40:13.065Z,8.90
2023-03-31T01:42:40.689Z,6.73
2023-03-31T01:45:44.644Z,7.67
2023-03-31T01:48:21.236Z,4.97
2023-03-31T01:51:01.471Z,9.50
2023-03-31T01:53:49.298Z,5.40
2023-03-31T01:56:30.573Z,6.17
2023-03-31T01:59:27.263Z,8.07
2023-03-31T02:02:13.826Z,6.80
2023-03-31T02:04:46.737Z,6.53
2023-03-31T02:07:19.546Z,5.03
2023-03-31T02:09:53.337Z,5.93
2023-03-31T02:12:24.595Z,8.83
2023-03-31T02:14:54.581Z,11.47
2023-03-31T02:17:33.014Z,11.03
2023-03-31T02:20:06.099Z,8.57
2023-03-31T02:22:36.169Z,4.77
2023-03-31T02:25:06.341Z,8.83
2023-03-31T02:27:37.492Z,11.17
2023-03-31T02:30:04.837Z,7.47
2023-03-31T02:32:36.765Z,7.43
2023-03-31T02:35:04.804Z,9.13
2023-03-31T02:37:31.378Z,8.63
2023-03-31T02:40:06.266Z,9.10
2023-03-31T02:42:32.780Z,9.83
2023-03-31T02:45:07.076Z,5.77
2023-03-31T02:47:34.780Z,6.00
2023-03-31T02:50:03.947Z,6.70
2023-03-31T02:53:13.887Z,7.37
2023-03-31T02:56:13.110Z,7.20
2023-03-31T02:59:01.496Z,5.43
2023-03-31T03:01:43.725Z,7.57
2023-03-31T03:04:59.525Z,8.90
2023-03-31T03:07:37.641Z,9.00
2023-03-31T03:10:24.291Z,9.33
2023-03-31T03:13:02.538Z,6.97
2023-03-31T03:16:07.446Z,5.40
2023-03-31T03:18:35.011Z,5.83
2023-03-31T03:21:02.652Z,5.57
2023-03-31T03:23:29.106Z,6.20
2023-03-31T03:25:55.687Z,6.63
2023-03-31T03:28:22.141Z,4.73
2023-03-31T03:30:48.652Z,6.03
2023-03-31T03:33:17.290Z,10.50
2023-03-31T03:35:43.999Z,6.57
2023-03-31T03:38:10.681Z,6.23
2023-03-31T03:40:37.139Z,10.07
2023-03-31T03:43:03.580Z,6.40
2023-03-31T03:45:30.573Z,9.97
2023-03-31T03:47:57.676Z,8.50
2023-03-31T03:50:24.330Z,6.93
2023-03-31T03:52:51.079Z,6.73
2023-03-31T03:55:17.816Z,6.80
2023-03-31T03:57:44.267Z,6.60
2023-03-31T04:00:12.305Z,5.70
2023-03-31T04:02:40.109Z,6.70
2023-03-31T04:05:07.101Z,6.07
2023-03-31T04:07:33.598Z,5.00
2023-03-31T04:10:00.208Z,9.60
2023-03-31T04:12:27.322Z,11.10
2023-03-31T04:14:53.765Z,5.87
2023-03-31T04:17:32.664Z,7.70
2023-03-31T04:20:08.877Z,5.57
2023-03-31T04:22:40.432Z,6.30
2023-03-31T04:25:14.838Z,4.90
2023-03-31T04:27:54.987Z,5.97
2023-03-31T04:30:23.361Z,8.40
2023-03-31T04:32:58.610Z,8.83
2023-03-31T04:35:28.002Z,7.90
2023-03-31T04:38:02.640Z,4.90
2023-03-31T04:40:29.093Z,8.23
2023-03-31T04:42:55.547Z,7.90
2023-03-31T04:45:22.105Z,6.07
2023-03-31T04:47:48.625Z,8.93
2023-03-31T04:50:17.030Z,4.40
2023-03-31T04:52:43.935Z,6.70
2023-03-31T04:55:10.843Z,8.03
2023-03-31T04:57:37.367Z,5.87
2023-03-31T05:00:08.140Z,6.07
2023-03-31T05:02:35.339Z,7.47
2023-03-31T05:05:04.579Z,7.90
2023-03-31T05:07:31.518Z,5.53
2023-03-31T05:09:58.253Z,7.73
2023-03-31T05:12:25.820Z,8.40
2023-03-31T05:14:52.352Z,7.30
2023-03-31T05:17:18.825Z,2.90
2023-03-31T05:19:45.394Z,7.47
2023-03-31T05:22:11.848Z,6.33
2023-03-31T05:24:38.287Z,7.03
2023-03-31T05:27:04.862Z,9.13
2023-03-31T05:29:31.362Z,7.13
2023-03-31T05:31:57.909Z,7.83
2023-03-31T05:34:24.450Z,8.50
2023-03-31T05:36:53.487Z,5.43
2023-03-31T05:39:20.134Z,8.87
2023-03-31T05:41:46.619Z,5.83
2023-03-31T05:44:13.170Z,5.83
2023-03-31T05:46:39.691Z,7.30
2023-03-31T05:49:06.978Z,6.30
2023-03-31T05:51:33.735Z,5.60
2023-03-31T05:54:00.783Z,9.73
2023-03-31T05:56:27.633Z,5.63
2023-03-31T05:58:54.217Z,5.87
2023-03-31T06:01:23.139Z,6.47
2023-03-31T06:03:50.478Z,7.37
2023-03-31T06:06:17.188Z,6.13
2023-03-31T06:08:45.806Z,9.93
2023-03-31T06:11:19.282Z,6.53
2023-03-31T06:13:46.204Z,6.37
2023-03-31T06:16:14.347Z,8.03
2023-03-31T06:18:41.604Z,6.43
2023-03-31T06:21:10.455Z,7.63
2023-03-31T06:23:36.886Z,4.57
2023-03-31T06:26:07.012Z,5.73
2023-03-31T06:28:34.412Z,6.90
2023-03-31T06:31:21.767Z,6.77
2023-03-31T06:33:48.862Z,10.60
2023-03-31T06:36:22.818Z,7.87
2023-03-31T06:38:55.054Z,9.27
2023-03-31T06:41:30.113Z,4.90
2023-03-31T06:43:56.601Z,7.27
2023-03-31T06:46:24.404Z,6.70
2023-03-31T06:48:50.863Z,5.83
2023-03-31T06:51:17.720Z,7.30
2023-03-31T06:53:44.170Z,6.53
2023-03-31T06:56:10.632Z,5.87
2023-03-31T06:58:37.034Z,7.53
2023-03-31T07:01:29.054Z,7.90
2023-03-31T07:03:55.456Z,6.03
2023-03-31T07:06:21.939Z,7.90
2023-03-31T07:08:48.442Z,7.90
2023-03-31T07:11:14.830Z,11.00
2023-03-31T07:13:41.354Z,5.57
2023-03-31T07:16:08.176Z,7.93
2023-03-31T07:18:36.493Z,8.03
2023-03-31T07:21:05.792Z,7.77
2023-03-31T07:23:35.609Z,5.07
2023-03-31T07:26:02.629Z,5.33
2023-03-31T07:28:30.115Z,7.23
2023-03-31T07:30:56.521Z,5.40
2023-03-31T07:33:23.236Z,6.77
2023-03-31T07:35:59.962Z,5.40
2023-03-31T07:38:35.474Z,5.17
2023-03-31T07:41:10.222Z,6.53
2023-03-31T07:43:36.794Z,5.43
2023-03-31T07:46:04.977Z,7.93
2023-03-31T07:48:31.708Z,5.47
2023-03-31T07:50:58.267Z,5.20
2023-03-31T07:53:31.020Z,5.70
2023-03-31T07:55:57.669Z,4.97
2023-03-31T07:58:24.385Z,6.47
2023-03-31T08:00:50.784Z,6.10
2023-03-31T08:03:17.259Z,6.13
2023-03-31T08:05:43.694Z,5.90
2023-03-31T08:08:10.104Z,4.87
2023-03-31T08:10:37.225Z,5.57
2023-03-31T08:13:03.682Z,5.13
2023-03-31T08:15:30.281Z,4.33
2023-03-31T08:17:56.741Z,6.80
2023-03-31T08:20:23.711Z,3.47
2023-03-31T08:22:50.231Z,3.07
2023-03-31T08:25:17.009Z,6.60
2023-03-31T08:27:43.489Z,4.40
2023-03-31T08:30:11.360Z,4.70
2023-03-31T08:32:37.988Z,6.30
2023-03-31T08:35:05.151Z,4.20
2023-03-31T08:37:32.385Z,4.90
2023-03-31T08:39:58.931Z,6.23
2023-03-31T08:42:36.766Z,6.00
2023-03-31T08:45:15.184Z,2.80
2023-03-31T08:47:43.799Z,5.20
2023-03-31T08:50:17.271Z,4.47
2023-03-31T08:53:04.026Z,4.87
2023-03-31T08:55:41.943Z,5.00
2023-03-31T08:58:18.669Z,2.67
2023-03-31T09:01:09.168Z,2.87
2023-03-31T09:03:47.098Z,3.47
2023-03-31T09:06:24.487Z,3.57
2023-03-31T09:08:53.477Z,4.73
2023-03-31T09:11:29.472Z,4.47
2023-03-31T09:14:13.671Z,5.73
2023-03-31T09:17:14.269Z,3.77
2023-03-31T09:20:08.673Z,3.70
2023-03-31T09:22:39.843Z,5.07
2023-03-31T09:25:23.597Z,5.13
2023-03-31T09:27:52.630Z,5.93
2023-03-31T09:30:25.932Z,3.57
2023-03-31T09:33:28.348Z,3.40
2023-03-31T09:35:54.928Z,3.83
2023-03-31T09:38:21.357Z,2.83
2023-03-31T09:40:47.966Z,3.07
2023-03-31T09:43:22.420Z,5.30
2023-03-31T09:46:05.320Z,2.90
2023-03-31T09:48:36.113Z,3.47
2023-03-31T09:51:06.606Z,5.07
2023-03-31T09:53:56.953Z,4.60
2023-03-31T09:56:41.825Z,5.60
2023-03-31T09:59:14.416Z,6.37
2023-03-31T10:01:42.088Z,3.47
2023-03-31T10:04:09.174Z,3.77
2023-03-31T10:06:42.079Z,4.23
2023-03-31T10:09:11.076Z,5.50
2023-03-31T10:11:37.979Z,4.67
2023-03-31T10:14:14.506Z,3.97
2023-03-31T10:16:54.171Z,2.97
2023-03-31T10:19:23.719Z,5.67
2023-03-31T10:22:15.529Z,4.37
2023-03-31T10:24:47.061Z,2.60
2023-03-31T10:27:24.486Z,3.67
2023-03-31T10:29:59.853Z,5.73
2023-03-31T10:32:29.199Z,5.17
2023-03-31T10:34:57.769Z,3.47
2023-03-31T10:37:28.060Z,2.43
2023-03-31T10:40:00.851Z,4.47
2023-03-31T10:42:28.904Z,3.70
2023-03-31T10:45:16.209Z,2.83
2023-03-31T10:47:50.140Z,4.87
2023-03-31T10:50:16.808Z,2.57
2023-03-31T10:52:48.492Z,2.60
2023-03-31T10:55:26.684Z,2.43
2023-03-31T10:58:16.406Z,2.47
2023-03-31T11:01:25.386Z,3.10
2023-03-31T11:03:58.313Z,3.33
2023-03-31T11:06:56.888Z,4.97
2023-03-31T11:09:46.327Z,1.70
2023-03-31T11:12:37.034Z,2.77
2023-03-31T11:15:21.176Z,2.13
2023-03-31T11:18:08.897Z,3.20
2023-03-31T11:21:06.543Z,3.63
2023-03-31T11:23:58.158Z,2.90
2023-03-31T11:26:44.842Z,4.47
2023-03-31T11:29:51.442Z,3.50
2023-03-31T11:32:48.331Z,1.83
2023-03-31T11:35:39.526Z,2.33
2023-03-31T11:38:32.040Z,2.63
2023-03-31T11:41:37.066Z,3.53
2023-03-31T11:44:12.813Z,5.27
2023-03-31T11:46:57.326Z,2.60
2023-03-31T11:49:30.298Z,2.13
2023-03-31T11:52:06.279Z,2.53
2023-03-31T11:54:55.511Z,5.17
2023-03-31T11:57:27.484Z,3.77
2023-03-31T11:59:58.977Z,3.73
2023-03-31T12:02:51.274Z,2.27
2023-03-31T12:05:19.222Z,4.20
2023-03-31T12:07:59.611Z,3.13
2023-03-31T12:10:42.984Z,2.87
2023-03-31T12:13:54.690Z,2.30
2023-03-31T12:16:38.770Z,2.07
2023-03-31T12:19:17.223Z,1.87
2023-03-31T12:21:49.778Z,5.03
2023-03-31T12:24:16.232Z,3.10
2023-03-31T12:26:57.750Z,4.83
2023-03-31T12:29:31.246Z,3.23
2023-03-31T12:32:02.823Z,2.37
2023-03-31T12:34:31.448Z,3.30
2023-03-31T12:37:30.425Z,3.70
2023-03-31T12:40:15.589Z,3.63
2023-03-31T12:43:04.579Z,2.47
2023-03-31T12:45:39.247Z,5.83
2023-03-31T12:48:30.627Z,5.83
2023-03-31T12:51:10.108Z,3.07
2023-03-31T12:54:02.284Z,3.57
2023-03-31T12:57:03.672Z,4.20
2023-03-31T12:59:47.030Z,4.33
2023-03-31T13:02:16.315Z,5.10
2023-03-31T13:04:43.937Z,5.23
2023-03-31T13:07:37.498Z,2.97
2023-03-31T13:10:19.809Z,8.17
2023-03-31T13:13:00.596Z,6.50
2023-03-31T13:15:30.286Z,4.37
2023-03-31T13:18:06.291Z,4.50
2023-03-31T13:20:38.321Z,4.93
2023-03-31T13:23:21.212Z,5.83
2023-03-31T13:25:50.513Z,8.13
2023-03-31T13:28:22.834Z,5.33
2023-03-31T13:30:57.929Z,5.63
2023-03-31T13:33:27.942Z,6.57
2023-03-31T13:36:07.712Z,7.57
2023-03-31T13:39:05.746Z,5.43
2023-03-31T13:41:56.597Z,6.77
2023-03-31T13:45:09.534Z,7.57
2023-03-31T13:47:57.535Z,6.70
2023-03-31T13:51:01.578Z,5.97
2023-03-31T13:53:40.514Z,6.27
2023-03-31T13:56:38.360Z,7.97
2023-03-31T13:59:23.690Z,5.23
2023-03-31T14:02:04.376Z,5.73
2023-03-31T14:04:43.141Z,8.03
2023-03-31T14:07:16.967Z,8.00
2023-03-31T14:09:49.767Z,4.63
2023-03-31T14:12:23.643Z,8.03
2023-03-31T14:14:53.688Z,6.33
2023-03-31T14:17:22.391Z,7.13
2023-03-31T14:20:08.372Z,9.20
2023-03-31T14:22:47.505Z,6.20
2023-03-31T14:25:40.897Z,7.43
2023-03-31T14:28:44.691Z,7.00
2023-03-31T14:31:27.015Z,5.90
2023-03-31T14:34:39.857Z,4.57
2023-03-31T14:37:11.479Z,7.40
2023-03-31T14:39:42.749Z,5.53
2023-03-31T14:42:27.041Z,7.50
2023-03-31T14:44:58.680Z,6.07
2023-03-31T14:47:30.605Z,6.47
2023-03-31T14:50:04.744Z,7.63
2023-03-31T14:52:33.468Z,6.07
2023-03-31T14:55:00.595Z,8.50
2023-03-31T14:57:34.801Z,9.47
2023-03-31T15:00:06.551Z,7.10
2023-03-31T15:02:36.092Z,4.83
2023-03-31T15:05:08.096Z,7.50
2023-03-31T15:07:36.121Z,8.07
2023-03-31T15:10:04.844Z,6.87
2023-03-31T15:12:31.613Z,7.87
2023-03-31T15:15:06.129Z,7.20
2023-03-31T15:17:39.133Z,8.50
2023-03-31T15:20:25.770Z,6.23
2023-03-31T15:22:52.500Z,5.17
2023-03-31T15:25:19.548Z,6.10
2023-03-31T15:27:53.916Z,7.90
2023-03-31T15:30:25.826Z,6.53
2023-03-31T15:32:58.788Z,6.63
2023-03-31T15:35:33.618Z,8.10
2023-03-31T15:38:02.629Z,7.40
2023-03-31T15:40:32.522Z,6.40
2023-03-31T15:43:33.656Z,6.87
2023-03-31T15:46:02.099Z,4.93
2023-03-31T15:48:37.037Z,4.47
2023-03-31T15:51:07.650Z,5.57
2023-03-31T15:53:48.737Z,5.60
2023-03-31T15:56:33.539Z,4.90
2023-03-31T15:59:04.692Z,3.67
2023-03-31T16:01:45.938Z,3.97
2023-03-31T16:04:14.621Z,3.30
2023-03-31T16:06:55.123Z,5.73
2023-03-31T16:09:26.006Z,3.90
2023-03-31T16:11:56.381Z,3.57
2023-03-31T16:14:33.461Z,4.17
2023-03-31T16:17:04.410Z,3.43
2023-03-31T16:19:39.616Z,3.43
2023-03-31T16:22:06.553Z,3.37
2023-03-31T16:24:35.301Z,3.50
2023-03-31T16:27:06.763Z,3.63
2023-03-31T16:29:36.890Z,4.47
2023-03-31T16:32:16.009Z,4.30
2023-03-31T16:34:53.437Z,6.87
2023-03-31T16:37:19.978Z,6.30
2023-03-31T16:39:46.392Z,6.10
2023-03-31T16:42:12.927Z,6.53
2023-03-31T16:44:40.842Z,9.10
2023-03-31T16:47:08.060Z,8.63
2023-03-31T16:49:34.761Z,9.83
2023-03-31T16:52:05.107Z,6.40
2023-03-31T16:54:31.967Z,7.90
2023-03-31T16:56:58.816Z,7.53
2023-03-31T16:59:26.007Z,5.40
2023-03-31T17:01:52.437Z,6.27
2023-03-31T17:04:19.770Z,7.23
2023-03-31T17:06:46.326Z,5.83
2023-03-31T17:09:12.737Z,7.53
2023-03-31T17:11:39.171Z,6.93
2023-03-31T17:14:05.885Z,8.77
2023-03-31T17:16:44.980Z,6.47
2023-03-31T17:19:14.124Z,6.77
2023-03-31T17:21:40.597Z,7.33
2023-03-31T17:24:07.550Z,5.63
2023-03-31T17:26:35.935Z,6.20
2023-03-31T17:29:04.966Z,8.77
2023-03-31T17:31:31.859Z,6.90
2023-03-31T17:33:58.635Z,7.03
2023-03-31T17:36:25.955Z,6.13
2023-03-31T17:38:52.725Z,4.57
2023-03-31T17:41:19.147Z,7.50
2023-03-31T17:43:47.182Z,8.77
2023-03-31T17:46:14.135Z,7.27
2023-03-31T17:48:41.785Z,6.10
2023-03-31T17:51:11.992Z,6.80
2023-03-31T17:53:39.668Z,10.07
2023-03-31T17:56:06.553Z,8.23
2023-03-31T17:58:33.599Z,10.50
2023-03-31T18:01:00.289Z,7.77
2023-03-31T18:03:29.811Z,5.73
2023-03-31T18:05:56.676Z,6.57
2023-03-31T18:08:23.692Z,9.77
2023-03-31T18:10:50.545Z,7.10
2023-03-31T18:13:17.419Z,9.97
2023-03-31T18:15:51.491Z,12.23
2023-03-31T18:18:18.883Z,7.83
2023-03-31T18:20:45.338Z,9.20
2023-03-31T18:23:12.393Z,9.20
2023-03-31T18:25:38.937Z,7.60
2023-03-31T18:28:05.426Z,7.80
2023-03-31T18:30:32.102Z,9.27
2023-03-31T18:32:59.292Z,9.00
2023-03-31T18:35:27.239Z,6.10
2023-03-31T18:37:53.753Z,4.63
2023-03-31T18:40:20.176Z,10.13
2023-03-31T18:42:47.546Z,7.63
2023-03-31T18:45:14.112Z,6.93
2023-03-31T18:47:40.615Z,6.33
2023-03-31T18:50:07.479Z,7.20
2023-03-31T18:52:36.100Z,10.20
2023-03-31T18:55:03.512Z,7.83
2023-03-31T18:57:30.105Z,10.47
2023-03-31T18:59:56.534Z,7.60
2023-03-31T19:02:23.049Z,12.03
2023-03-31T19:04:49.730Z,6.17
2023-03-31T19:07:16.289Z,6.20
2023-03-31T19:09:42.836Z,6.80
2023-03-31T19:12:11.698Z,7.13
2023-03-31T19:14:38.722Z,7.93
2023-03-31T19:17:05.902Z,8.03
2023-03-31T19:19:32.367Z,7.97
2023-03-31T19:21:58.922Z,9.07
2023-03-31T19:24:25.755Z,7.50
2023-03-31T19:26:52.320Z,7.00
2023-03-31T19:29:19.081Z,6.87
2023-03-31T19:31:47.518Z,3.80
2023-03-31T19:34:16.447Z,4.80
2023-03-31T19:36:43.318Z,4.67
2023-03-31T19:39:11.058Z,7.53
2023-03-31T19:41:37.514Z,3.40
2023-03-31T19:44:04.869Z,4.00
2023-03-31T19:46:31.660Z,5.17
2023-03-31T19:48:58.134Z,3.17
2023-03-31T19:51:32.160Z,5.43
2023-03-31T19:53:58.857Z,4.63
2023-03-31T19:56:27.085Z,4.50
2023-03-31T19:58:53.591Z,6.93
2023-03-31T20:01:24.008Z,6.43
2023-03-31T20:03:53.019Z,4.23
2023-03-31T20:06:25.802Z,5.83
2023-03-31T20:08:57.496Z,3.47
2023-03-31T20:11:26.116Z,6.93
2023-03-31T20:13:53.037Z,5.70
2023-03-31T20:16:22.408Z,4.57
2023-03-31T20:19:11.276Z,5.20
2023-03-31T20:21:38.902Z,3.60
2023-03-31T20:24:06.390Z,3.53
2023-03-31T20:26:34.254Z,3.87
2023-03-31T20:29:03.607Z,4.10
2023-03-31T20:31:33.608Z,5.77
2023-03-31T20:34:00.359Z,4.63
2023-03-31T20:36:32.112Z,4.00
2023-03-31T20:38:59.902Z,4.60
2023-03-31T20:41:28.600Z,6.57
2023-03-31T20:43:55.927Z,4.90
2023-03-31T20:46:23.095Z,6.57
2023-03-31T20:48:58.021Z,7.50
2023-03-31T20:51:30.313Z,7.37
2023-03-31T20:53:58.730Z,3.33
2023-03-31T20:56:34.166Z,3.87
2023-03-31T20:59:01.038Z,3.10
2023-03-31T21:01:31.014Z,2.80
2023-03-31T21:04:02.108Z,5.03
2023-03-31T21:06:32.539Z,5.60
2023-03-31T21:08:59.982Z,7.60
2023-03-31T21:11:27.277Z,5.57
2023-03-31T21:13:54.004Z,3.50
2023-03-31T21:16:21.484Z,3.23
2023-03-31T21:18:48.313Z,4.43
2023-03-31T21:21:19.321Z,3.47
2023-03-31T21:23:46.594Z,6.77
2023-03-31T21:26:15.688Z,4.83
2023-03-31T21:28:43.315Z,4.07
2023-03-31T21:31:11.015Z,4.63
2023-03-31T21:33:39.044Z,2.60
2023-03-31T21:36:07.953Z,3.10
2023-03-31T21:38:36.225Z,5.63
2023-03-31T21:41:10.858Z,3.40
2023-03-31T21:43:37.762Z,2.03
2023-03-31T21:46:04.573Z,3.53
2023-03-31T21:48:31.937Z,2.97
2023-03-31T21:51:00.831Z,2.70
2023-03-31T21:53:30.117Z,2.40
2023-03-31T21:55:57.660Z,3.77
2023-03-31T21:58:28.384Z,4.67
2023-03-31T22:00:56.465Z,3.83
2023-03-31T22:03:27.520Z,2.97
2023-03-31T22:05:56.604Z,3.33
2023-03-31T22:08:24.318Z,2.03
2023-03-31T22:10:52.204Z,4.70
2023-03-31T22:13:19.897Z,3.87
2023-03-31T22:15:46.916Z,3.03
2023-03-31T22:18:13.560Z,2.57
2023-03-31T22:20:40.955Z,5.50
2023-03-31T22:23:07.487Z,3.53
2023-03-31T22:25:34.553Z,5.03
2023-03-31T22:28:03.956Z,4.27
2023-03-31T22:30:31.894Z,4.83
2023-03-31T22:32:58.538Z,5.63
2023-03-31T22:35:26.033Z,4.87
2023-03-31T22:37:52.733Z,3.47
2023-03-31T22:40:19.243Z,4.07
2023-03-31T22:42:45.658Z,4.40
2023-03-31T22:45:12.391Z,4.03
2023-03-31T22:47:39.037Z,5.50
2023-03-31T22:50:06.219Z,4.77
2023-03-31T22:52:32.777Z,3.87
2023-03-31T22:54:59.516Z,4.10
2023-03-31T22:57:26.423Z,6.03
2023-03-31T22:59:52.955Z,4.60
2023-03-31T23:02:19.539Z,3.67
2023-03-31T23:04:46.056Z,3.03
2023-03-31T23:07:12.538Z,4.07
2023-03-31T23:09:39.160Z,3.80
2023-03-31T23:12:06.141Z,3.23
2023-03-31T23:14:32.794Z,3.03
2023-03-31T23:16:59.361Z,4.00
2023-03-31T23:19:26.252Z,4.00
2023-03-31T23:21:52.772Z,4.77
2023-03-31T23:24:21.142Z,5.27
2023-03-31T23:26:47.544Z,4.13
2023-03-31T23:29:13.985Z,4.73
2023-03-31T23:31:40.525Z,4.53
2023-03-31T23:34:07.215Z,3.03
2023-03-31T23:36:33.816Z,2.80
2023-03-31T23:39:00.288Z,3.53
2023-03-31T23:41:27.904Z,5.17
2023-03-31T23:43:55.722Z,2.80
2023-03-31T23:46:22.227Z,3.50
2023-03-31T23:48:49.114Z,3.30
2023-03-31T23:51:15.841Z,5.20
2023-03-31T23:53:42.305Z,4.80
2023-03-31T23:56:11.807Z,3.50
2023-03-31T23:58:39.105Z,3.57
